Time;durP1;ratioP1;P1;durP2;ratioP2;P2;SDS_P1;SDS_P2;PMS_P1;PMS_P2;Temp;Humidity;BMP_temperature;BMP_pressure;BME280_temperature;BME280_humidity;BME280_pressure;Samples;Min_cycle;Max_cycle;Signal;HPM_P1;HPM_P2
2021/09/03 00:02:17;;;;;;;16.87;11.50;;;13.30;99.90;;;;;;5031523;28;20207;-84
2021/09/03 00:04:44;;;;;;;14.90;11.80;;;13.30;99.90;;;;;;5026402;28;20635;-83
2021/09/03 00:07:11;;;;;;;22.53;13.47;;;13.30;99.90;;;;;;5011876;28;20203;-85
2021/09/03 00:09:39;;;;;;;21.27;12.90;;;13.30;99.90;;;;;;5014470;28;20226;-83
2021/09/03 00:12:08;;;;;;;17.20;13.03;;;13.30;99.90;;;;;;5030009;28;20519;-82
2021/09/03 00:14:35;;;;;;;23.20;14.13;;;13.30;99.90;;;;;;5047341;28;20358;-81
2021/09/03 00:17:03;;;;;;;17.77;12.80;;;13.30;99.90;;;;;;5050966;28;20205;-84
2021/09/03 00:19:31;;;;;;;23.47;13.90;;;13.30;99.90;;;;;;5039487;28;20201;-84
2021/09/03 00:21:58;;;;;;;19.13;13.20;;;13.30;99.90;;;;;;5030532;28;20210;-84
2021/09/03 00:24:25;;;;;;;22.40;13.40;;;13.30;99.90;;;;;;5029418;28;20207;-79
2021/09/03 00:26:52;;;;;;;17.40;11.97;;;13.30;99.90;;;;;;5029495;28;20206;-83
2021/09/03 00:29:19;;;;;;;19.63;13.80;;;13.30;99.90;;;;;;5030629;28;20226;-84
2021/09/03 00:31:45;;;;;;;19.97;11.97;;;13.30;99.90;;;;;;5029856;28;20217;-83
2021/09/03 00:34:12;;;;;;;16.13;11.50;;;13.30;99.90;;;;;;5029939;28;20190;-84
2021/09/03 00:36:40;;;;;;;18.97;12.77;;;13.20;99.90;;;;;;5030342;28;20234;-83
2021/09/03 00:39:07;;;;;;;17.43;10.63;;;13.20;99.90;;;;;;5030803;28;20214;-81
2021/09/03 00:41:34;;;;;;;16.53;11.20;;;13.20;99.90;;;;;;5029581;28;20211;-80
2021/09/03 00:44:01;;;;;;;16.33;11.67;;;13.20;99.90;;;;;;5030386;28;20599;-82
2021/09/03 00:46:27;;;;;;;13.60;10.30;;;13.20;99.90;;;;;;5029498;28;20214;-85
2021/09/03 00:48:54;;;;;;;14.50;11.17;;;13.20;99.90;;;;;;5027783;28;20713;-84
2021/09/03 00:51:21;;;;;;;13.63;10.43;;;13.10;99.90;;;;;;5024477;28;20210;-83
2021/09/03 00:53:50;;;;;;;14.77;10.47;;;13.10;99.90;;;;;;5007043;28;20200;-81
2021/09/03 00:56:17;;;;;;;15.53;10.67;;;13.10;99.90;;;;;;5008241;28;20195;-83
2021/09/03 00:58:44;;;;;;;20.73;13.23;;;13.10;99.90;;;;;;5007663;28;20209;-81
2021/09/03 01:01:11;;;;;;;24.53;14.67;;;13.00;99.90;;;;;;5008468;28;20207;-81
2021/09/03 01:03:38;;;;;;;18.13;12.10;;;13.00;99.90;;;;;;5007969;28;20725;-81
2021/09/03 01:06:05;;;;;;;18.43;12.80;;;13.00;99.90;;;;;;5022778;28;20256;-80
2021/09/03 01:08:33;;;;;;;23.43;14.60;;;13.00;99.90;;;;;;5049470;28;20292;-81
2021/09/03 01:11:01;;;;;;;21.43;14.13;;;13.00;99.90;;;;;;5049230;28;20222;-82
2021/09/03 01:13:28;;;;;;;22.63;14.40;;;13.00;99.90;;;;;;5052123;28;20194;-81
2021/09/03 01:15:55;;;;;;;23.60;14.53;;;13.00;99.90;;;;;;5016140;28;20218;-82
2021/09/03 01:18:22;;;;;;;35.83;16.73;;;13.00;99.90;;;;;;5022128;28;20214;-82
2021/09/03 01:20:49;;;;;;;20.33;14.00;;;13.10;99.90;;;;;;5027737;28;20289;-80
2021/09/03 01:23:18;;;;;;;25.00;16.37;;;13.10;99.90;;;;;;5028141;28;20631;-81
2021/09/03 01:25:45;;;;;;;20.57;13.60;;;13.10;99.90;;;;;;5045161;28;20225;-84
2021/09/03 01:28:12;;;;;;;22.73;13.57;;;13.00;99.90;;;;;;5048356;28;20205;-82
2021/09/03 01:30:39;;;;;;;18.77;12.77;;;13.00;99.90;;;;;;5047947;28;20237;-83
2021/09/03 01:33:06;;;;;;;20.17;13.53;;;13.00;99.90;;;;;;5047608;28;20214;-81
2021/09/03 01:35:33;;;;;;;21.83;13.30;;;13.00;99.90;;;;;;5047153;28;20198;-81
2021/09/03 01:38:00;;;;;;;19.50;13.33;;;13.00;99.90;;;;;;5047595;28;20824;-82
2021/09/03 01:40:28;;;;;;;19.27;13.13;;;12.90;99.90;;;;;;5048646;28;20285;-82
2021/09/03 01:42:55;;;;;;;17.80;11.97;;;12.90;99.90;;;;;;5045462;28;20217;-82
2021/09/03 01:45:22;;;;;;;16.20;11.87;;;12.90;99.90;;;;;;5047545;28;20202;-80
2021/09/03 01:47:49;;;;;;;20.87;14.20;;;12.90;99.90;;;;;;5037431;28;20217;-79
2021/09/03 01:50:15;;;;;;;21.53;14.33;;;12.80;99.90;;;;;;5027917;28;20241;-81
2021/09/03 01:52:42;;;;;;;17.27;12.10;;;12.80;99.90;;;;;;5028014;28;20233;-81
2021/09/03 01:55:10;;;;;;;18.00;12.63;;;12.80;99.90;;;;;;5026759;28;20311;-82
2021/09/03 01:57:38;;;;;;;23.20;14.30;;;12.80;99.90;;;;;;5026039;28;20210;-84
2021/09/03 02:00:06;;;;;;;19.73;14.03;;;12.80;99.90;;;;;;5026709;28;20226;-82
2021/09/03 02:02:33;;;;;;;24.03;14.20;;;12.80;99.90;;;;;;5028020;28;20607;-83
2021/09/03 02:05:00;;;;;;;25.27;16.77;;;12.80;99.90;;;;;;5027486;28;20643;-81
2021/09/03 02:07:27;;;;;;;20.17;14.40;;;12.80;99.90;;;;;;5028445;28;20206;-81
2021/09/03 02:09:54;;;;;;;19.37;14.47;;;12.80;99.90;;;;;;5027854;28;20229;-84
2021/09/03 02:12:20;;;;;;;24.63;14.73;;;12.80;99.90;;;;;;5027625;28;20630;-84
2021/09/03 02:14:48;;;;;;;19.93;14.30;;;12.80;99.90;;;;;;5007376;28;20922;-84
2021/09/03 02:17:15;;;;;;;22.37;15.47;;;12.80;99.90;;;;;;5009223;28;20214;-84
2021/09/03 02:19:42;;;;;;;23.60;15.00;;;12.80;99.90;;;;;;5007602;28;20289;-83
2021/09/03 02:22:09;;;;;;;24.07;14.87;;;12.80;99.90;;;;;;5027200;28;20241;-83
2021/09/03 02:24:36;;;;;;;22.07;15.03;;;12.80;99.90;;;;;;5028883;28;20785;-84
2021/09/03 02:27:03;;;;;;;33.27;19.60;;;12.80;99.90;;;;;;5020020;28;20843;-84
2021/09/03 02:29:30;;;;;;;23.03;16.20;;;12.80;99.90;;;;;;5008197;28;20199;-84
2021/09/03 02:31:58;;;;;;;20.87;14.27;;;12.80;99.90;;;;;;5025236;28;20216;-83
2021/09/03 02:34:25;;;;;;;26.83;15.77;;;12.80;99.90;;;;;;5028203;28;20214;-82
2021/09/03 02:36:52;;;;;;;25.57;14.90;;;12.80;99.90;;;;;;5027703;28;20762;-82
2021/09/03 02:39:19;;;;;;;27.43;15.67;;;12.80;99.90;;;;;;5008504;28;20207;-81
2021/09/03 02:41:46;;;;;;;24.97;17.23;;;12.80;99.90;;;;;;5007830;28;20207;-81
2021/09/03 02:44:12;;;;;;;24.00;15.57;;;12.90;99.90;;;;;;5031828;28;20214;-82
2021/09/03 02:46:39;;;;;;;26.87;16.00;;;12.90;99.90;;;;;;5048260;28;20587;-82
2021/09/03 02:49:07;;;;;;;20.83;14.73;;;12.90;99.90;;;;;;5045557;28;20206;-79
2021/09/03 02:51:34;;;;;;;23.47;15.50;;;12.90;99.90;;;;;;5031939;28;20226;-81
2021/09/03 02:54:02;;;;;;;24.43;16.03;;;12.80;99.90;;;;;;5031583;28;20884;-81
2021/09/03 02:56:28;;;;;;;22.13;14.93;;;12.80;99.90;;;;;;5032518;28;20204;-81
2021/09/03 02:58:55;;;;;;;26.93;15.90;;;12.80;99.90;;;;;;5049504;28;20209;-83
2021/09/03 03:01:22;;;;;;;26.17;16.53;;;12.80;99.90;;;;;;5051523;28;20238;-85
2021/09/03 03:03:49;;;;;;;25.47;15.80;;;12.80;99.90;;;;;;5051435;28;20201;-86
2021/09/03 03:06:17;;;;;;;24.07;15.97;;;12.80;99.90;;;;;;5047733;28;20531;-80
2021/09/03 03:08:43;;;;;;;25.10;14.83;;;12.80;99.90;;;;;;5012132;28;20622;-80
2021/09/03 03:11:10;;;;;;;24.60;17.27;;;12.80;99.90;;;;;;5012653;28;20230;-83
2021/09/03 03:13:38;;;;;;;28.57;16.70;;;12.80;99.90;;;;;;5026097;28;20221;-82
2021/09/03 03:16:05;;;;;;;21.87;14.70;;;12.80;99.90;;;;;;5031484;28;20359;-83
2021/09/03 03:18:33;;;;;;;31.83;17.83;;;12.80;99.90;;;;;;5031959;28;20210;-82
2021/09/03 03:21:01;;;;;;;27.73;16.87;;;12.80;99.90;;;;;;5044104;28;20202;-80
2021/09/03 03:23:29;;;;;;;26.50;16.00;;;12.80;99.90;;;;;;5051883;28;20209;-79
2021/09/03 03:25:56;;;;;;;30.00;17.93;;;12.80;99.90;;;;;;5041592;28;20221;-83
2021/09/03 03:28:23;;;;;;;25.77;16.30;;;12.80;99.90;;;;;;5032825;28;20206;-82
2021/09/03 03:30:50;;;;;;;27.80;15.87;;;12.80;99.90;;;;;;5031675;28;20229;-82
2021/09/03 03:33:17;;;;;;;30.33;16.73;;;12.80;99.90;;;;;;5032631;28;20591;-82
2021/09/03 03:35:43;;;;;;;27.93;17.60;;;12.90;99.90;;;;;;5040577;28;20217;-82
2021/09/03 03:38:10;;;;;;;30.40;17.07;;;12.90;99.90;;;;;;5052028;28;20783;-82
2021/09/03 03:40:39;;;;;;;24.50;15.67;;;12.90;99.90;;;;;;5041458;28;20213;-82
2021/09/03 03:43:05;;;;;;;26.73;15.13;;;12.90;99.90;;;;;;5032369;28;20198;-84
2021/09/03 03:45:32;;;;;;;27.90;16.40;;;12.90;99.90;;;;;;5039894;28;20209;-83
2021/09/03 03:47:59;;;;;;;25.37;15.93;;;12.90;99.90;;;;;;5051864;28;20210;-81
2021/09/03 03:50:26;;;;;;;25.83;16.60;;;12.90;99.90;;;;;;5052696;28;20230;-83
2021/09/03 03:52:53;;;;;;;21.70;13.83;;;12.90;99.90;;;;;;5042197;28;20213;-83
2021/09/03 03:55:20;;;;;;;22.27;14.97;;;12.90;99.90;;;;;;5031786;28;20194;-83
2021/09/03 03:57:48;;;;;;;21.17;14.73;;;12.80;99.90;;;;;;5031532;28;20214;-83
2021/09/03 04:00:16;;;;;;;19.90;14.23;;;12.80;99.90;;;;;;5032059;28;20206;-83
2021/09/03 04:02:43;;;;;;;20.60;13.73;;;12.80;99.90;;;;;;5046235;28;20620;-82
2021/09/03 04:05:10;;;;;;;20.30;14.20;;;12.80;99.90;;;;;;5053484;28;20221;-80
2021/09/03 04:07:37;;;;;;;19.80;13.90;;;12.70;99.90;;;;;;5051850;28;20208;-82
2021/09/03 04:10:04;;;;;;;19.60;13.20;;;12.70;99.90;;;;;;5052356;28;20213;-83
2021/09/03 04:12:31;;;;;;;20.80;14.33;;;12.70;99.90;;;;;;5053085;28;20190;-81
2021/09/03 04:14:59;;;;;;;17.27;12.83;;;12.60;99.90;;;;;;5052533;28;20507;-85
2021/09/03 04:17:26;;;;;;;19.40;13.70;;;12.60;99.90;;;;;;5052966;28;20218;-82
2021/09/03 04:19:52;;;;;;;18.13;13.17;;;12.60;99.90;;;;;;5052467;28;20202;-84
2021/09/03 04:22:19;;;;;;;18.63;12.87;;;12.60;99.90;;;;;;5053385;28;20652;-82
2021/09/03 04:24:46;;;;;;;17.30;13.67;;;12.50;99.90;;;;;;5053010;28;20198;-83
2021/09/03 04:27:13;;;;;;;19.53;12.43;;;12.50;99.90;;;;;;5058391;28;20202;-82
2021/09/03 04:29:39;;;;;;;17.50;12.67;;;12.50;99.90;;;;;;5056283;28;20199;-82
2021/09/03 04:32:08;;;;;;;16.83;11.80;;;12.50;99.90;;;;;;5039871;28;20222;-83
2021/09/03 04:34:34;;;;;;;15.70;12.20;;;12.40;99.90;;;;;;5038251;28;20218;-83
2021/09/03 04:37:01;;;;;;;16.10;12.10;;;12.40;99.90;;;;;;5036617;28;20253;-83
2021/09/03 04:39:28;;;;;;;15.57;12.27;;;12.40;99.90;;;;;;5036030;28;20202;-83
2021/09/03 04:41:55;;;;;;;18.07;12.40;;;12.40;99.90;;;;;;5031898;28;20202;-83
2021/09/03 04:44:21;;;;;;;16.23;12.03;;;12.30;99.90;;;;;;5030606;28;20284;-83
2021/09/03 04:46:48;;;;;;;19.23;12.73;;;12.30;99.90;;;;;;5030044;28;20206;-82
2021/09/03 04:49:16;;;;;;;19.40;13.27;;;12.30;99.90;;;;;;5030636;28;20361;-80
2021/09/03 04:51:43;;;;;;;18.60;12.83;;;12.30;99.90;;;;;;5023353;28;20231;-82
2021/09/03 04:54:10;;;;;;;20.20;13.33;;;12.30;99.90;;;;;;5029186;28;20510;-81
2021/09/03 04:56:37;;;;;;;20.03;12.50;;;12.30;99.90;;;;;;5029432;28;20213;-82
2021/09/03 04:59:03;;;;;;;18.37;12.93;;;12.20;99.90;;;;;;5024799;28;20566;-80
2021/09/03 05:01:31;;;;;;;20.13;15.17;;;12.20;99.90;;;;;;5010887;28;20202;-83
2021/09/03 05:03:57;;;;;;;20.37;13.63;;;12.20;99.90;;;;;;5013231;28;20215;-83
2021/09/03 05:06:26;;;;;;;18.23;13.33;;;12.20;99.90;;;;;;5041238;28;20305;-82
2021/09/03 05:08:53;;;;;;;19.63;13.37;;;12.20;99.90;;;;;;5051038;28;20721;-83
2021/09/03 05:11:19;;;;;;;19.43;13.43;;;12.20;99.90;;;;;;5050784;28;20233;-81
2021/09/03 05:13:46;;;;;;;17.07;12.83;;;12.20;99.90;;;;;;5034166;28;20213;-82
2021/09/03 05:16:13;;;;;;;22.07;14.37;;;12.20;99.90;;;;;;5032121;28;20583;-83
2021/09/03 05:18:40;;;;;;;19.10;12.67;;;12.20;99.90;;;;;;5022385;28;20204;-82
2021/09/03 05:21:07;;;;;;;19.60;13.47;;;12.20;99.90;;;;;;5010312;28;20199;-83
2021/09/03 05:23:35;;;;;;;18.53;12.97;;;12.20;99.90;;;;;;5010680;28;20235;-83
2021/09/03 05:26:02;;;;;;;19.07;12.70;;;12.20;99.90;;;;;;5016155;28;20210;-82
2021/09/03 05:28:29;;;;;;;19.57;13.47;;;12.20;99.90;;;;;;5030497;28;20214;-84
2021/09/03 05:30:56;;;;;;;25.97;16.27;;;12.20;99.90;;;;;;5028607;28;20230;-83
2021/09/03 05:33:23;;;;;;;25.23;15.60;;;12.20;99.90;;;;;;5030001;28;20202;-82
2021/09/03 05:35:50;;;;;;;26.17;16.03;;;12.30;99.90;;;;;;5027715;28;20207;-80
2021/09/03 05:38:17;;;;;;;27.57;16.70;;;12.30;99.90;;;;;;5028455;28;20755;-81
2021/09/03 05:40:45;;;;;;;26.77;15.83;;;12.30;99.90;;;;;;5029890;28;20205;-81
2021/09/03 05:43:12;;;;;;;26.63;17.50;;;12.40;99.90;;;;;;5030086;28;20214;-84
2021/09/03 05:45:38;;;;;;;29.33;17.57;;;12.40;99.90;;;;;;5030748;28;20199;-82
2021/09/03 05:48:05;;;;;;;25.57;16.97;;;12.50;99.90;;;;;;5030460;28;20213;-84
2021/09/03 05:50:32;;;;;;;29.37;17.33;;;12.60;99.90;;;;;;5022388;28;20206;-84
2021/09/03 05:52:59;;;;;;;32.87;17.27;;;12.60;99.90;;;;;;5010186;28;20210;-83
2021/09/03 05:55:26;;;;;;;30.70;18.27;;;12.60;99.90;;;;;;5013743;28;20210;-84
2021/09/03 05:57:54;;;;;;;28.10;18.40;;;12.70;99.90;;;;;;5029678;28;20203;-84
2021/09/03 06:00:21;;;;;;;27.50;18.20;;;12.80;99.90;;;;;;5030127;28;20217;-81
2021/09/03 06:02:48;;;;;;;26.23;17.23;;;12.90;99.90;;;;;;5029226;28;20191;-83
2021/09/03 06:05:15;;;;;;;28.57;17.10;;;12.90;99.90;;;;;;5029656;28;20229;-82
2021/09/03 06:07:42;;;;;;;35.03;19.93;;;13.00;99.90;;;;;;5028664;28;20211;-83
2021/09/03 06:10:10;;;;;;;30.07;18.90;;;13.10;99.90;;;;;;5025531;28;20222;-82
2021/09/03 06:12:37;;;;;;;33.30;20.00;;;13.10;99.90;;;;;;5026473;28;20230;-85
2021/09/03 06:15:06;;;;;;;28.83;17.13;;;13.20;99.90;;;;;;5026196;28;20586;-83
2021/09/03 06:17:33;;;;;;;30.80;20.17;;;13.20;99.90;;;;;;5048000;28;20598;-83
2021/09/03 06:20:00;;;;;;;22.50;15.80;;;13.20;99.90;;;;;;5047871;28;20213;-83
2021/09/03 06:22:26;;;;;;;31.10;17.90;;;13.30;99.90;;;;;;5050621;28;20213;-83
2021/09/03 06:24:53;;;;;;;30.77;16.97;;;13.30;99.90;;;;;;5040818;28;20213;-83
2021/09/03 06:27:20;;;;;;;26.30;16.67;;;13.40;99.90;;;;;;5032702;28;20214;-83
2021/09/03 06:29:47;;;;;;;29.90;16.23;;;13.40;99.90;;;;;;5031605;28;20522;-81
2021/09/03 06:32:17;;;;;;;26.73;17.63;;;13.50;99.90;;;;;;5030031;28;20508;-83
2021/09/03 06:34:46;;;;;;;28.10;16.27;;;13.50;99.90;;;;;;5029209;28;20737;-83
2021/09/03 06:37:13;;;;;;;24.23;15.83;;;13.60;99.90;;;;;;5020491;28;20257;-82
2021/09/03 06:39:41;;;;;;;29.73;17.30;;;13.70;99.90;;;;;;5009418;28;20279;-84
2021/09/03 06:42:09;;;;;;;28.63;17.23;;;13.70;99.90;;;;;;5009110;28;20215;-84
2021/09/03 06:44:37;;;;;;;27.30;16.97;;;13.80;99.90;;;;;;5011003;28;20636;-84
2021/09/03 06:47:04;;;;;;;32.80;18.47;;;13.80;99.90;;;;;;5028631;28;20191;-85
2021/09/03 06:49:34;;;;;;;34.43;19.07;;;13.90;99.90;;;;;;5028184;28;20211;-82
2021/09/03 06:52:01;;;;;;;29.73;17.33;;;14.00;99.90;;;;;;5015962;28;20231;-82
2021/09/03 06:54:28;;;;;;;28.57;17.60;;;14.10;99.90;;;;;;5023207;28;20205;-84
2021/09/03 06:56:55;;;;;;;31.17;18.00;;;14.20;99.90;;;;;;5024816;28;20215;-83
2021/09/03 06:59:37;;;;;;;29.70;17.83;;;14.30;99.90;;;;;;5000162;28;20199;-83
2021/09/03 07:02:04;;;;;;;25.67;17.53;;;14.40;99.90;;;;;;5007594;28;20202;-83
2021/09/03 07:04:31;;;;;;;32.03;17.40;;;14.50;99.90;;;;;;4991139;28;20281;-85
2021/09/03 07:06:59;;;;;;;29.13;17.63;;;14.60;99.90;;;;;;5006115;28;20207;-82
2021/09/03 07:09:26;;;;;;;37.63;18.47;;;14.70;99.90;;;;;;5007471;28;20207;-82
2021/09/03 07:11:52;;;;;;;30.03;17.70;;;14.70;99.90;;;;;;5011588;28;20228;-82
2021/09/03 07:14:19;;;;;;;27.20;16.00;;;14.80;99.90;;;;;;5026702;28;20571;-80
2021/09/03 07:16:46;;;;;;;28.23;15.87;;;14.90;99.90;;;;;;5007598;28;20212;-82
2021/09/03 07:19:13;;;;;;;25.73;16.97;;;14.90;99.90;;;;;;5007674;28;20245;-81
2021/09/03 07:21:40;;;;;;;38.03;17.10;;;15.00;99.90;;;;;;5006902;28;20638;-82
2021/09/03 07:24:08;;;;;;;27.17;17.27;;;15.10;99.90;;;;;;5007195;28;20651;-83
2021/09/03 07:26:36;;;;;;;28.40;17.20;;;15.20;99.90;;;;;;5007927;28;20600;-83
2021/09/03 07:29:04;;;;;;;27.50;17.40;;;15.40;99.90;;;;;;5008100;28;20203;-84
2021/09/03 07:31:31;;;;;;;23.17;16.33;;;15.50;99.90;;;;;;5008289;28;20227;-84
2021/09/03 07:33:58;;;;;;;26.52;15.40;;;15.60;99.90;;;;;;5009964;28;20231;-85
2021/09/03 07:36:25;;;;;;;28.77;15.57;;;15.70;99.90;;;;;;5013804;28;20242;-86
2021/09/03 07:38:52;;;;;;;22.75;15.15;;;15.80;99.90;;;;;;5033046;28;20274;-85
2021/09/03 07:41:22;;;;;;;25.23;15.60;;;15.80;99.90;;;;;;5022877;28;20207;-85
2021/09/03 07:43:49;;;;;;;21.97;14.27;;;15.90;99.90;;;;;;5012787;28;20207;-85
2021/09/03 07:46:15;;;;;;;26.37;15.20;;;16.00;99.90;;;;;;5023035;28;20196;-85
2021/09/03 07:48:42;;;;;;;18.83;13.37;;;16.00;99.90;;;;;;5013741;28;20203;-82
2021/09/03 07:51:09;;;;;;;21.77;13.53;;;16.10;99.90;;;;;;5016347;28;20203;-83
2021/09/03 07:53:36;;;;;;;18.47;13.03;;;16.10;99.90;;;;;;5012168;28;20214;-84
2021/09/03 07:56:04;;;;;;;17.60;12.10;;;16.20;99.90;;;;;;5016727;28;20765;-85
2021/09/03 07:58:32;;;;;;;22.57;13.40;;;16.30;99.90;;;;;;5033234;28;20214;-84
2021/09/03 08:01:01;;;;;;;17.63;12.15;;;16.40;99.90;;;;;;5032185;28;20202;-84
2021/09/03 08:03:27;;;;;;;17.30;11.70;;;16.60;99.90;;;;;;5026568;28;20226;-83
2021/09/03 08:05:54;;;;;;;16.17;11.55;;;16.80;99.90;;;;;;4992647;28;20220;-84
2021/09/03 08:08:21;;;;;;;18.42;10.90;;;17.00;99.90;;;;;;4993516;28;20208;-85
2021/09/03 08:10:48;;;;;;;15.85;10.75;;;17.20;99.90;;;;;;4999246;28;20219;-84
2021/09/03 08:13:15;;;;;;;16.90;12.23;;;17.40;99.90;;;;;;4999629;28;20219;-86
2021/09/03 08:15:43;;;;;;;21.13;12.27;;;17.70;99.90;;;;;;5012893;28;20214;-86
2021/09/03 08:18:10;;;;;;;22.63;11.90;;;18.00;99.90;;;;;;5013246;28;20494;-84
2021/09/03 08:20:37;;;;;;;16.92;11.27;;;18.20;99.90;;;;;;4995262;28;20208;-85
2021/09/03 08:23:05;;;;;;;17.65;11.50;;;18.50;99.90;;;;;;4994275;28;20729;-86
2021/09/03 08:25:32;;;;;;;16.90;10.70;;;18.60;99.90;;;;;;5032922;28;20214;-83
2021/09/03 08:27:59;;;;;;;17.02;11.52;;;18.90;99.90;;;;;;5030608;28;20211;-82
2021/09/03 08:30:26;;;;;;;16.92;11.52;;;19.10;99.90;;;;;;4991784;28;20201;-88
2021/09/03 08:32:55;;;;;;;14.48;10.55;;;19.20;99.90;;;;;;4992799;28;20315;-89
2021/09/03 08:35:22;;;;;;;14.38;9.75;;;19.30;99.90;;;;;;4994503;28;20215;-85
2021/09/03 08:37:49;;;;;;;19.90;9.93;;;19.50;99.90;;;;;;5011731;28;20589;-84
2021/09/03 08:40:16;;;;;;;13.52;9.60;;;19.70;99.90;;;;;;5012853;28;20204;-87
2021/09/03 08:42:43;;;;;;;15.93;9.25;;;19.80;99.90;;;;;;5011894;28;20603;-83
2021/09/03 08:45:14;;;;;;;15.10;10.30;;;20.00;99.90;;;;;;5013575;28;20207;-88
2021/09/03 08:47:42;;;;;;;15.90;9.93;;;20.20;99.90;;;;;;5030235;28;20206;-83
2021/09/03 08:50:14;;;;;;;14.80;9.77;;;20.40;99.90;;;;;;5031206;28;20203;-86
2021/09/03 08:52:44;;;;;;;19.65;10.32;;;20.70;99.90;;;;;;5012561;28;20316;-82
2021/09/03 08:55:11;;;;;;;13.73;9.73;;;20.90;99.90;;;;;;5012280;28;20226;-85
2021/09/03 08:57:38;;;;;;;18.08;10.52;;;21.00;99.90;;;;;;5010820;28;20243;-88
2021/09/03 09:00:22;;;;;;;14.13;9.18;;;21.10;99.90;;;;;;5011157;28;20203;-86
2021/09/03 09:03:06;;;;;;;13.65;9.90;;;21.10;99.90;;;;;;5010934;28;20195;-85
2021/09/03 09:05:59;;;;;;;14.70;9.85;;;21.40;99.90;;;;;;5013008;28;20234;-86
2021/09/03 09:08:28;;;;;;;16.83;10.50;;;21.60;99.90;;;;;;4992679;28;20207;-83
2021/09/03 09:10:57;;;;;;;14.13;9.35;;;21.50;99.90;;;;;;5010652;28;20215;-86
2021/09/03 09:13:25;;;;;;;15.25;9.85;;;21.60;99.90;;;;;;5009903;28;20223;-82
2021/09/03 09:16:01;;;;;;;16.25;9.65;;;21.70;99.90;;;;;;5009179;28;20203;-83
2021/09/03 09:18:35;;;;;;;15.65;9.45;;;21.60;99.90;;;;;;5009820;28;20203;-86
2021/09/03 09:21:16;;;;;;;18.52;10.57;;;21.60;99.90;;;;;;5011351;28;20202;-87
2021/09/03 09:23:55;;;;;;;17.60;9.68;;;21.50;99.90;;;;;;5021770;28;20214;-87
2021/09/03 09:26:25;;;;;;;14.90;9.60;;;21.70;99.90;;;;;;5031898;28;20503;-88
2021/09/03 09:28:53;;;;;;;12.77;8.52;;;21.70;99.90;;;;;;5032762;28;20201;-82
2021/09/03 09:31:31;;;;;;;17.15;10.30;;;21.80;99.90;;;;;;5020006;28;20207;-86
2021/09/03 09:33:58;;;;;;;14.13;10.50;;;21.60;99.90;;;;;;5013852;28;20211;-89
2021/09/03 09:36:34;;;;;;;14.70;9.45;;;21.40;99.90;;;;;;5011854;28;20239;-88
2021/09/03 09:39:02;;;;;;;14.20;9.10;;;21.40;99.90;;;;;;5013320;28;20191;-86
2021/09/03 09:41:29;;;;;;;15.88;9.50;;;21.50;99.90;;;;;;5012166;28;20219;-86
2021/09/03 09:43:56;;;;;;;11.82;8.57;;;21.40;99.90;;;;;;5012172;28;20226;-85
2021/09/03 09:46:24;;;;;;;14.90;9.80;;;21.60;99.90;;;;;;5012214;28;20633;-85
2021/09/03 09:49:12;;;;;;;15.63;9.48;;;21.70;99.90;;;;;;5010514;28;20274;-82
2021/09/03 09:51:52;;;;;;;19.65;9.73;;;21.90;99.90;;;;;;4988541;28;20199;-86
2021/09/03 09:54:21;;;;;;;19.70;10.73;;;22.20;99.90;;;;;;5010914;28;20522;-85
2021/09/03 09:56:49;;;;;;;15.50;8.60;;;22.40;99.90;;;;;;5018503;28;20215;-84
2021/09/03 09:59:17;;;;;;;13.93;10.10;;;22.70;99.90;;;;;;5018093;28;20206;-87
2021/09/03 10:01:47;;;;;;;16.50;9.60;;;22.80;99.90;;;;;;5012086;28;20206;-83
2021/09/03 10:04:15;;;;;;;15.88;9.82;;;23.00;99.90;;;;;;5010625;28;20210;-82
2021/09/03 10:06:45;;;;;;;15.35;9.07;;;22.90;99.90;;;;;;5010308;28;20205;-87
2021/09/03 10:09:13;;;;;;;16.52;9.43;;;23.10;99.90;;;;;;5009749;28;20592;-85
2021/09/03 10:11:42;;;;;;;12.13;8.85;;;23.10;99.90;;;;;;5009875;28;20823;-85
2021/09/03 10:14:12;;;;;;;18.30;10.60;;;23.20;99.90;;;;;;5009172;28;20499;-84
2021/09/03 10:16:39;;;;;;;16.42;9.30;;;23.40;99.90;;;;;;5010308;28;20211;-82
2021/09/03 10:19:07;;;;;;;13.07;8.43;;;23.70;99.90;;;;;;5010977;28;20203;-85
2021/09/03 10:21:37;;;;;;;16.63;8.45;;;23.60;99.90;;;;;;5011790;28;20207;-83
2021/09/03 10:24:11;;;;;;;13.02;9.13;;;23.90;99.90;;;;;;5010791;28;20187;-82
2021/09/03 10:26:39;;;;;;;14.48;9.07;;;23.90;99.90;;;;;;5010845;28;20229;-86
2021/09/03 10:29:19;;;;;;;14.23;8.30;;;23.50;99.90;;;;;;5011579;28;20208;-85
2021/09/03 10:32:16;;;;;;;16.90;9.90;;;23.40;99.90;;;;;;5008672;28;20509;-86
2021/09/03 10:34:51;;;;;;;14.13;9.35;;;23.00;99.90;;;;;;4975928;28;20222;-85
2021/09/03 10:37:23;;;;;;;16.60;8.70;;;22.80;99.90;;;;;;5010201;28;20827;-85
2021/09/03 10:39:55;;;;;;;13.63;9.10;;;22.70;99.90;;;;;;5009455;28;20210;-83
2021/09/03 10:42:45;;;;;;;14.88;9.65;;;22.60;99.90;;;;;;5010717;28;20269;-85
2021/09/03 10:45:14;;;;;;;14.60;8.18;;;22.60;99.90;;;;;;5010291;28;20282;-84
2021/09/03 10:47:45;;;;;;;14.00;8.80;;;22.70;99.90;;;;;;5009458;28;20306;-86
2021/09/03 10:50:16;;;;;;;18.92;9.60;;;22.70;99.90;;;;;;5010738;28;20211;-85
2021/09/03 10:53:18;;;;;;;17.90;8.57;;;22.70;99.90;;;;;;5008543;28;20235;-85
2021/09/03 10:56:18;;;;;;;15.25;8.85;;;22.60;99.90;;;;;;5010400;28;20561;-84
2021/09/03 10:58:59;;;;;;;14.27;8.77;;;22.60;99.90;;;;;;5018829;28;20262;-85
2021/09/03 11:01:50;;;;;;;17.40;9.40;;;22.80;99.90;;;;;;5007650;28;20658;-85
2021/09/03 11:04:17;;;;;;;16.25;9.00;;;22.90;99.90;;;;;;5008569;28;20600;-87
2021/09/03 11:07:04;;;;;;;13.70;8.55;;;23.10;99.90;;;;;;5008982;28;20246;-83
2021/09/03 11:09:31;;;;;;;10.90;7.22;;;23.10;99.90;;;;;;5012138;28;20205;-88
2021/09/03 11:12:02;;;;;;;12.02;8.55;;;23.20;99.90;;;;;;5012888;28;20603;-83
2021/09/03 11:14:30;;;;;;;13.32;8.85;;;23.40;99.90;;;;;;5013941;28;20501;-86
2021/09/03 11:16:58;;;;;;;14.60;8.23;;;23.70;99.90;;;;;;5025985;28;20221;-92
2021/09/03 11:19:30;;;;;;;13.13;8.40;;;23.80;99.90;;;;;;5033764;28;20198;-90
2021/09/03 11:21:59;;;;;;;15.07;9.52;;;23.90;99.90;;;;;;5023130;28;20202;-88
2021/09/03 11:24:28;;;;;;;13.38;8.93;;;24.00;99.90;;;;;;5013143;28;20222;-86
2021/09/03 11:26:56;;;;;;;11.57;7.82;;;24.00;99.90;;;;;;5012752;28;20517;-87
2021/09/03 11:29:28;;;;;;;12.18;7.60;;;24.00;99.90;;;;;;5019374;28;20210;-82
2021/09/03 11:32:01;;;;;;;14.30;7.88;;;24.20;99.90;;;;;;5017027;28;20375;-84
2021/09/03 11:34:51;;;;;;;16.77;9.50;;;24.00;99.90;;;;;;5025428;28;20222;-88
2021/09/03 11:37:19;;;;;;;12.20;8.73;;;23.80;99.90;;;;;;5019914;28;20661;-84
2021/09/03 11:39:46;;;;;;;12.88;8.50;;;23.80;99.90;;;;;;5014328;28;20203;-81
2021/09/03 11:42:24;;;;;;;16.00;9.60;;;23.70;99.90;;;;;;5015643;28;20206;-84
2021/09/03 11:44:56;;;;;;;14.50;8.13;;;23.70;99.90;;;;;;5014352;28;20219;-84
2021/09/03 11:47:31;;;;;;;12.32;8.32;;;23.70;99.90;;;;;;5014373;28;20681;-79
2021/09/03 11:49:58;;;;;;;11.85;8.27;;;23.60;99.90;;;;;;5008513;28;20239;-86
2021/09/03 11:52:30;;;;;;;17.00;9.32;;;23.60;99.90;;;;;;4997679;28;20204;-84
2021/09/03 11:54:58;;;;;;;18.90;9.65;;;23.50;99.90;;;;;;5008143;28;20218;-86
2021/09/03 11:57:26;;;;;;;14.73;9.30;;;23.50;99.90;;;;;;5012002;28;20207;-84
2021/09/03 11:59:56;;;;;;;10.07;7.25;;;23.70;99.90;;;;;;5014249;28;20204;-85
2021/09/03 12:02:25;;;;;;;15.13;8.40;;;23.80;99.90;;;;;;5013618;28;20211;-84
2021/09/03 12:04:53;;;;;;;12.50;8.18;;;23.70;99.90;;;;;;5029699;28;20537;-88
2021/09/03 12:07:21;;;;;;;12.63;8.02;;;23.80;99.90;;;;;;5027800;28;20207;-83
2021/09/03 12:09:48;;;;;;;16.42;8.35;;;23.90;99.90;;;;;;5011201;28;20200;-81
2021/09/03 12:12:23;;;;;;;17.92;8.75;;;23.90;99.90;;;;;;5025033;28;20797;-83
2021/09/03 12:14:55;;;;;;;13.27;7.72;;;24.00;99.90;;;;;;5030270;28;20197;-85
2021/09/03 12:17:22;;;;;;;14.07;9.02;;;24.10;99.90;;;;;;5024692;28;20203;-86
2021/09/03 12:19:49;;;;;;;15.85;9.13;;;24.10;99.90;;;;;;4992946;28;20562;-88
2021/09/03 12:22:20;;;;;;;13.43;8.30;;;23.80;99.90;;;;;;4993719;28;20210;-91
2021/09/03 12:24:50;;;;;;;14.18;7.75;;;23.80;99.90;;;;;;4992480;28;20584;-89
2021/09/03 12:27:17;;;;;;;14.38;7.90;;;23.90;99.90;;;;;;5003095;28;20206;-85
2021/09/03 12:29:44;;;;;;;15.45;8.20;;;24.10;99.90;;;;;;5032204;28;20637;-80
2021/09/03 12:32:14;;;;;;;13.50;7.70;;;24.10;99.90;;;;;;5032016;28;20238;-86
2021/09/03 12:34:41;;;;;;;12.82;7.93;;;24.10;99.90;;;;;;5031628;28;20218;-85
2021/09/03 12:37:10;;;;;;;11.10;8.45;;;23.90;99.90;;;;;;5014120;28;20293;-87
2021/09/03 12:39:39;;;;;;;12.15;7.30;;;24.10;99.90;;;;;;5010625;28;20203;-85